VOZ281 YMML-YSCB
Flight info
| Callsign | VOZ281 |
|---|---|
| Flight time | 0h 46m |
| Altitude | 33000 |
| Route | DOSEL2/34 DOSEL Y59 ARRAN J42 CB |
| Aircraft | B738/M-SDE2E3FGHIRWXY/LB1 |
Departure
| Time | 2026-05-04 08:53 |
|---|---|
| Airport | Melbourne Airport (YMML) |
Arrival
| Time | 2026-05-04 09:39 |
|---|---|
| Airport | Canberra Airport (YSCB) |
| Time | Latitude | Longitude | Altitude | Speed | Heading |
|---|---|---|---|---|---|
| 2026-05-04 07:57 | -37.67258 | 144.84713 | 390 ft | 0 kts | 170° |
| 2026-05-04 08:29 | -37.67249 | 144.84711 | 390 ft | 2 kts | 172° |
| 2026-05-04 08:29 | -37.67232 | 144.84708 | 391 ft | 2 kts | 176° |
| 2026-05-04 08:31 | -37.67185 | 144.84740 | 393 ft | 0 kts | 261° |
| 2026-05-04 08:35 | -37.67209 | 144.84507 | 388 ft | 13 kts | 272° |
| 2026-05-04 08:35 | -37.67197 | 144.84418 | 387 ft | 10 kts | 270° |
| 2026-05-04 08:35 | -37.67205 | 144.84320 | 386 ft | 13 kts | 264° |
| 2026-05-04 08:35 | -37.67215 | 144.84205 | 384 ft | 13 kts | 264° |
| 2026-05-04 08:37 | -37.67655 | 144.84145 | 368 ft | 4 kts | 171° |
| 2026-05-04 08:37 | -37.67690 | 144.84152 | 369 ft | 5 kts | 172° |
| 2026-05-04 08:37 | -37.67723 | 144.84158 | 368 ft | 5 kts | 171° |
| 2026-05-04 08:38 | -37.67728 | 144.84159 | 366 ft | 0 kts | 171° |
| 2026-05-04 08:46 | -37.67773 | 144.84167 | 365 ft | 8 kts | 172° |
| 2026-05-04 08:46 | -37.67804 | 144.84173 | 364 ft | 3 kts | 172° |
| 2026-05-04 08:46 | -37.67806 | 144.84173 | 364 ft | 0 kts | 172° |
| 2026-05-04 08:50 | -37.67872 | 144.84114 | 365 ft | 0 kts | 263° |
| 2026-05-04 08:51 | -37.67874 | 144.84102 | 361 ft | 3 kts | 263° |
| 2026-05-04 08:51 | -37.67877 | 144.84057 | 361 ft | 8 kts | 265° |
| 2026-05-04 08:51 | -37.67864 | 144.83979 | 366 ft | 10 kts | 306° |
| 2026-05-04 08:52 | -37.67811 | 144.83957 | 364 ft | 7 kts | 352° |
| 2026-05-04 08:52 | -37.67714 | 144.83938 | 367 ft | 38 kts | 351° |
| 2026-05-04 08:52 | -37.67199 | 144.83842 | 389 ft | 108 kts | 352° |
| 2026-05-04 08:52 | -37.66279 | 144.83674 | 581 ft | 148 kts | 354° |
| 2026-05-04 08:53 | -37.65242 | 144.83483 | 1401 ft | 153 kts | 349° |
| 2026-05-04 08:54 | -37.55327 | 144.84456 | 5592 ft | 266 kts | 20° |
| 2026-05-04 08:55 | -37.53665 | 144.85518 | 6425 ft | 270 kts | 20° |
| 2026-05-04 08:55 | -37.51969 | 144.86590 | 7202 ft | 275 kts | 20° |
| 2026-05-04 08:55 | -37.50240 | 144.87663 | 8039 ft | 279 kts | 20° |
| 2026-05-04 08:55 | -37.48476 | 144.88742 | 8823 ft | 284 kts | 20° |
| 2026-05-04 08:57 | -37.37482 | 145.02518 | 13309 ft | 360 kts | 51° |
| 2026-05-04 09:01 | -37.15727 | 145.40894 | 23154 ft | 409 kts | 50° |
| 2026-05-04 09:01 | -37.14060 | 145.43802 | 23708 ft | 413 kts | 50° |
| 2026-05-04 09:01 | -37.12376 | 145.46735 | 24188 ft | 416 kts | 49° |
| 2026-05-04 09:01 | -37.10676 | 145.49695 | 24675 ft | 419 kts | 49° |
| 2026-05-04 09:02 | -37.08965 | 145.52671 | 25139 ft | 423 kts | 48° |
| 2026-05-04 09:02 | -37.07239 | 145.55672 | 25603 ft | 425 kts | 47° |
| 2026-05-04 09:02 | -37.05503 | 145.58688 | 26048 ft | 428 kts | 47° |
| 2026-05-04 09:02 | -37.03749 | 145.61733 | 26472 ft | 432 kts | 46° |
| 2026-05-04 09:03 | -37.02007 | 145.64756 | 26903 ft | 435 kts | 46° |
| 2026-05-04 09:03 | -37.00228 | 145.67839 | 27344 ft | 438 kts | 46° |
| 2026-05-04 09:03 | -36.98439 | 145.70938 | 27770 ft | 441 kts | 45° |
| 2026-05-04 09:03 | -36.96637 | 145.74057 | 28176 ft | 444 kts | 45° |
| 2026-05-04 09:04 | -36.94818 | 145.77201 | 28616 ft | 446 kts | 44° |
| 2026-05-04 09:04 | -36.93007 | 145.80334 | 29209 ft | 443 kts | 44° |
| 2026-05-04 09:04 | -36.91209 | 145.83448 | 29897 ft | 440 kts | 43° |
| 2026-05-04 09:04 | -36.89417 | 145.86544 | 30342 ft | 440 kts | 43° |
| 2026-05-04 09:05 | -36.87613 | 145.89651 | 30705 ft | 442 kts | 43° |
| 2026-05-04 09:05 | -36.85806 | 145.92758 | 31086 ft | 442 kts | 43° |
| 2026-05-04 09:05 | -36.84020 | 145.95827 | 31506 ft | 442 kts | 43° |
| 2026-05-04 09:05 | -36.82219 | 145.98922 | 31938 ft | 441 kts | 44° |
| 2026-05-04 09:06 | -36.80409 | 146.02029 | 32354 ft | 441 kts | 44° |
| 2026-05-04 09:07 | -36.67699 | 146.23769 | 33016 ft | 441 kts | 44° |
| 2026-05-04 09:08 | -36.65885 | 146.26858 | 33016 ft | 442 kts | 44° |
| 2026-05-04 09:08 | -36.62252 | 146.33037 | 33011 ft | 442 kts | 44° |
| 2026-05-04 09:09 | -36.58606 | 146.39228 | 33013 ft | 443 kts | 44° |
| 2026-05-04 09:09 | -36.54982 | 146.45372 | 33020 ft | 443 kts | 44° |
| 2026-05-04 09:10 | -36.51326 | 146.51558 | 33021 ft | 444 kts | 44° |
| 2026-05-04 09:10 | -36.47666 | 146.57741 | 33022 ft | 444 kts | 44° |
| 2026-05-04 09:11 | -36.44004 | 146.63917 | 33037 ft | 444 kts | 44° |
| 2026-05-04 09:11 | -36.40332 | 146.70099 | 33030 ft | 444 kts | 44° |
| 2026-05-04 09:12 | -36.36661 | 146.76262 | 33030 ft | 444 kts | 44° |
| 2026-05-04 09:14 | -36.22023 | 147.00759 | 32401 ft | 435 kts | 44° |
| 2026-05-04 09:14 | -36.20251 | 147.03716 | 32020 ft | 430 kts | 44° |
| 2026-05-04 09:14 | -36.18494 | 147.06703 | 31607 ft | 431 kts | 48° |
| 2026-05-04 09:14 | -36.17196 | 147.10094 | 31341 ft | 439 kts | 61° |
| 2026-05-04 09:15 | -36.16178 | 147.13648 | 30940 ft | 437 kts | 63° |
| 2026-05-04 09:15 | -36.15213 | 147.17204 | 30567 ft | 435 kts | 63° |
| 2026-05-04 09:15 | -36.14256 | 147.20754 | 30184 ft | 432 kts | 63° |
| 2026-05-04 09:15 | -36.13296 | 147.24270 | 29725 ft | 429 kts | 63° |
| 2026-05-04 09:17 | -36.05666 | 147.51061 | 26500 ft | 399 kts | 61° |
| 2026-05-04 09:18 | -36.04736 | 147.54288 | 26119 ft | 396 kts | 61° |
| 2026-05-04 09:18 | -36.03813 | 147.57482 | 25736 ft | 393 kts | 60° |
| 2026-05-04 09:18 | -36.02897 | 147.60650 | 25356 ft | 391 kts | 60° |
| 2026-05-04 09:18 | -36.01984 | 147.63805 | 24980 ft | 389 kts | 60° |
| 2026-05-04 09:19 | -36.01074 | 147.66945 | 24604 ft | 387 kts | 60° |
| 2026-05-04 09:19 | -36.00164 | 147.70079 | 24226 ft | 386 kts | 60° |
| 2026-05-04 09:19 | -35.99261 | 147.73189 | 23839 ft | 384 kts | 60° |
| 2026-05-04 09:19 | -35.98361 | 147.76286 | 23444 ft | 382 kts | 60° |
| 2026-05-04 09:20 | -35.97464 | 147.79368 | 23001 ft | 380 kts | 60° |
| 2026-05-04 09:20 | -35.96574 | 147.82429 | 22598 ft | 378 kts | 60° |
| 2026-05-04 09:20 | -35.95688 | 147.85469 | 22214 ft | 374 kts | 60° |
| 2026-05-04 09:20 | -35.94812 | 147.88471 | 21850 ft | 371 kts | 60° |
| 2026-05-04 09:21 | -35.93942 | 147.91456 | 21470 ft | 368 kts | 60° |
| 2026-05-04 09:21 | -35.93078 | 147.94410 | 21112 ft | 364 kts | 60° |
| 2026-05-04 09:21 | -35.92221 | 147.97340 | 20746 ft | 362 kts | 60° |
| 2026-05-04 09:21 | -35.91366 | 148.00254 | 20385 ft | 359 kts | 60° |
| 2026-05-04 09:22 | -35.90528 | 148.03109 | 20027 ft | 357 kts | 60° |
| 2026-05-04 09:22 | -35.89684 | 148.05981 | 19666 ft | 355 kts | 60° |
| 2026-05-04 09:22 | -35.88846 | 148.08831 | 19326 ft | 352 kts | 60° |
| 2026-05-04 09:22 | -35.88012 | 148.11663 | 18956 ft | 350 kts | 60° |
| 2026-05-04 09:23 | -35.87182 | 148.14480 | 18614 ft | 347 kts | 60° |
| 2026-05-04 09:23 | -35.86357 | 148.17277 | 18245 ft | 345 kts | 61° |
| 2026-05-04 09:23 | -35.85540 | 148.20046 | 17858 ft | 343 kts | 61° |
| 2026-05-04 09:23 | -35.84727 | 148.22798 | 17483 ft | 341 kts | 61° |
| 2026-05-04 09:25 | -35.79181 | 148.41493 | 15100 ft | 325 kts | 62° |
| 2026-05-04 09:25 | -35.78402 | 148.44107 | 14779 ft | 325 kts | 62° |
| 2026-05-04 09:26 | -35.77620 | 148.46731 | 14427 ft | 325 kts | 62° |
| 2026-05-04 09:26 | -35.76842 | 148.49339 | 14087 ft | 324 kts | 62° |
| 2026-05-04 09:26 | -35.76065 | 148.51947 | 13723 ft | 324 kts | 62° |
| 2026-05-04 09:26 | -35.75292 | 148.54537 | 13370 ft | 322 kts | 62° |
| 2026-05-04 09:27 | -35.74520 | 148.57118 | 13111 ft | 320 kts | 62° |
| 2026-05-04 09:27 | -35.73746 | 148.59700 | 13101 ft | 320 kts | 62° |
| 2026-05-04 09:27 | -35.73000 | 148.62218 | 13057 ft | 311 kts | 62° |
| 2026-05-04 09:27 | -35.72275 | 148.64687 | 13056 ft | 296 kts | 61° |
| 2026-05-04 09:28 | -35.71588 | 148.67020 | 13057 ft | 283 kts | 61° |
| 2026-05-04 09:28 | -35.70932 | 148.69244 | 13061 ft | 270 kts | 60° |
| 2026-05-04 09:28 | -35.70303 | 148.71356 | 12915 ft | 264 kts | 60° |
| 2026-05-04 09:28 | -35.69667 | 148.73481 | 12626 ft | 265 kts | 60° |
| 2026-05-04 09:29 | -35.69028 | 148.75615 | 12254 ft | 269 kts | 60° |
| 2026-05-04 09:29 | -35.68585 | 148.77090 | 11905 ft | 276 kts | 60° |
| 2026-05-04 09:29 | -35.67887 | 148.79398 | 11050 ft | 300 kts | 60° |
| 2026-05-04 09:29 | -35.67165 | 148.81815 | 10568 ft | 306 kts | 62° |
| 2026-05-04 09:30 | -35.66455 | 148.84237 | 10426 ft | 295 kts | 61° |
| 2026-05-04 09:30 | -35.65755 | 148.86592 | 10114 ft | 293 kts | 60° |
| 2026-05-04 09:30 | -35.65054 | 148.88940 | 9847 ft | 291 kts | 60° |
| 2026-05-04 09:30 | -35.64356 | 148.91278 | 9498 ft | 290 kts | 61° |
| 2026-05-04 09:31 | -35.63659 | 148.93599 | 9215 ft | 289 kts | 61° |
| 2026-05-04 09:31 | -35.62963 | 148.95920 | 8873 ft | 289 kts | 61° |
| 2026-05-04 09:31 | -35.62273 | 148.98232 | 8509 ft | 287 kts | 62° |
| 2026-05-04 09:31 | -35.61580 | 149.00540 | 8018 ft | 289 kts | 63° |
| 2026-05-04 09:32 | -35.60883 | 149.02858 | 7617 ft | 289 kts | 63° |
| 2026-05-04 09:32 | -35.60186 | 149.05178 | 7210 ft | 289 kts | 63° |
| 2026-05-04 09:34 | -35.53901 | 149.18578 | 5669 ft | 223 kts | 7° |
| 2026-05-04 09:34 | -35.52408 | 149.18998 | 5465 ft | 216 kts | 2° |
| 2026-05-04 09:34 | -35.50929 | 149.19256 | 5241 ft | 215 kts | 0° |
| 2026-05-04 09:34 | -35.49454 | 149.19409 | 5030 ft | 210 kts | 356° |
| 2026-05-04 09:35 | -35.48020 | 149.19446 | 4866 ft | 203 kts | 354° |
| 2026-05-04 09:35 | -35.46638 | 149.19448 | 4705 ft | 196 kts | 354° |
| 2026-05-04 09:35 | -35.45256 | 149.19445 | 4491 ft | 196 kts | 354° |
| 2026-05-04 09:35 | -35.43934 | 149.19446 | 4374 ft | 187 kts | 354° |
| 2026-05-04 09:37 | -35.36126 | 149.19442 | 2864 ft | 141 kts | 358° |
| 2026-05-04 09:37 | -35.35133 | 149.19444 | 2640 ft | 142 kts | 358° |
| 2026-05-04 09:38 | -35.34161 | 149.19443 | 2433 ft | 142 kts | 358° |
| 2026-05-04 09:38 | -35.33175 | 149.19446 | 2263 ft | 143 kts | 358° |
| 2026-05-04 09:38 | -35.32171 | 149.19447 | 2050 ft | 145 kts | 359° |
| 2026-05-04 09:38 | -35.31163 | 149.19444 | 1884 ft | 142 kts | 358° |
| 2026-05-04 09:39 | -35.30278 | 149.19444 | 1881 ft | 109 kts | 360° |
| 2026-05-04 09:39 | -35.29661 | 149.19444 | 1881 ft | 67 kts | 0° |
| 2026-05-04 09:39 | -35.29301 | 149.19444 | 1881 ft | 35 kts | 0° |
| 2026-05-04 09:39 | -35.29117 | 149.19428 | 1883 ft | 24 kts | 334° |
| 2026-05-04 09:40 | -35.29077 | 149.19271 | 1880 ft | 17 kts | 245° |
| 2026-05-04 09:40 | -35.29163 | 149.19233 | 1882 ft | 11 kts | 181° |
| 2026-05-04 09:40 | -35.29239 | 149.19231 | 1883 ft | 11 kts | 181° |
| 2026-05-04 09:40 | -35.29311 | 149.19231 | 1883 ft | 10 kts | 180° |
| 2026-05-04 09:41 | -35.29389 | 149.19233 | 1879 ft | 12 kts | 179° |
| 2026-05-04 09:42 | -35.30183 | 149.19239 | 1878 ft | 15 kts | 180° |
| 2026-05-04 09:43 | -35.30277 | 149.19239 | 1880 ft | 12 kts | 180° |
| 2026-05-04 09:43 | -35.30357 | 149.19239 | 1881 ft | 12 kts | 180° |
| 2026-05-04 09:43 | -35.30432 | 149.19238 | 1881 ft | 8 kts | 180° |
| 2026-05-04 09:43 | -35.30446 | 149.19238 | 1882 ft | 0 kts | 180° |
| 2026-05-04 09:44 | -35.30447 | 149.19238 | 1882 ft | 1 kts | 180° |
| 2026-05-04 09:46 | -35.30613 | 149.19125 | 1883 ft | 6 kts | 292° |
| 2026-05-04 09:46 | -35.30634 | 149.19076 | 1879 ft | 6 kts | 220° |
| 2026-05-04 09:46 | -35.30643 | 149.19066 | 1881 ft | 0 kts | 219° |